createdAt,value
2017-10-23T00:00:22.307Z,6.87
2017-10-23T00:02:50.032Z,6.89
2017-10-23T00:05:17.769Z,6.85
2017-10-23T00:07:45.528Z,6.92
2017-10-23T00:10:13.245Z,6.88
2017-10-23T00:12:41.125Z,6.88
2017-10-23T00:15:08.911Z,6.87
2017-10-23T00:17:36.760Z,6.91
2017-10-23T00:20:04.475Z,6.90
2017-10-23T00:22:32.192Z,6.97
2017-10-23T00:24:59.915Z,6.97
2017-10-23T00:27:27.611Z,6.92
2017-10-23T00:29:55.666Z,6.90
2017-10-23T00:32:23.749Z,6.90
2017-10-23T00:34:51.504Z,6.85
2017-10-23T00:37:19.387Z,6.87
2017-10-23T00:39:47.154Z,6.93
2017-10-23T00:42:14.896Z,6.91
2017-10-23T00:44:42.601Z,6.94
2017-10-23T00:47:10.328Z,6.89
2017-10-23T00:49:38.019Z,6.88
2017-10-23T00:52:05.827Z,6.82
2017-10-23T00:54:34.324Z,6.82
2017-10-23T00:57:02.133Z,6.87
2017-10-23T00:59:30.016Z,6.75
2017-10-23T01:01:58.127Z,6.79
2017-10-23T01:04:25.902Z,6.80
2017-10-23T01:06:53.594Z,7.05
2017-10-23T01:09:21.358Z,7.08
2017-10-23T01:11:49.075Z,6.95
2017-10-23T01:14:16.906Z,6.85
2017-10-23T01:16:44.615Z,6.82
2017-10-23T01:19:13.371Z,6.85
2017-10-23T01:21:41.177Z,6.81
2017-10-23T01:24:08.904Z,6.72
2017-10-23T01:26:36.720Z,6.74
2017-10-23T01:29:04.446Z,6.76
2017-10-23T01:31:32.312Z,6.76
2017-10-23T01:34:00.054Z,6.75
2017-10-23T01:36:27.833Z,6.73
2017-10-23T01:38:55.624Z,6.70
2017-10-23T01:41:23.374Z,6.71
2017-10-23T01:43:51.983Z,6.71
2017-10-23T01:46:19.733Z,6.70
2017-10-23T01:48:47.566Z,6.55
2017-10-23T01:51:15.373Z,6.59
2017-10-23T01:53:43.107Z,6.67
2017-10-23T01:56:10.927Z,6.66
2017-10-23T01:58:38.739Z,6.62
2017-10-23T02:01:06.476Z,6.61
2017-10-23T02:03:34.222Z,6.59
2017-10-23T02:06:02.078Z,6.60
2017-10-23T02:08:29.987Z,6.64
2017-10-23T02:10:57.684Z,6.64
2017-10-23T02:13:25.386Z,6.65
2017-10-23T02:15:53.321Z,6.61
2017-10-23T02:18:21.127Z,6.60
2017-10-23T02:20:48.886Z,6.54
2017-10-23T02:23:16.677Z,6.60
2017-10-23T02:25:44.487Z,6.54
2017-10-23T02:28:12.380Z,6.54
2017-10-23T02:30:40.308Z,6.54
2017-10-23T02:33:08.038Z,6.50
2017-10-23T02:35:35.769Z,6.53
2017-10-23T02:38:03.523Z,6.47
2017-10-23T02:40:31.221Z,6.45
2017-10-23T02:42:58.902Z,6.48
2017-10-23T02:45:26.661Z,6.49
2017-10-23T02:47:54.348Z,6.49
2017-10-23T02:50:22.106Z,6.45
2017-10-23T02:52:49.838Z,6.36
2017-10-23T02:55:17.585Z,6.46
2017-10-23T02:57:45.335Z,6.47
2017-10-23T03:00:13.044Z,6.45
2017-10-23T03:02:40.725Z,6.42
2017-10-23T03:05:08.476Z,6.41
2017-10-23T03:07:36.186Z,6.42
2017-10-23T03:10:03.929Z,6.39
2017-10-23T03:12:31.711Z,6.42
2017-10-23T03:14:59.473Z,6.42
2017-10-23T03:17:27.240Z,6.35
2017-10-23T03:19:54.971Z,6.33
2017-10-23T03:22:22.716Z,6.32
2017-10-23T03:24:50.458Z,6.22
2017-10-23T03:27:18.243Z,6.26
2017-10-23T03:29:46.239Z,6.24
2017-10-23T03:32:14.044Z,6.22
2017-10-23T03:34:41.868Z,6.18
2017-10-23T03:37:09.714Z,6.19
2017-10-23T03:39:37.470Z,6.14
2017-10-23T03:42:05.193Z,6.08
2017-10-23T03:44:33.408Z,6.15
2017-10-23T03:47:01.152Z,6.18
2017-10-23T03:49:28.864Z,6.23
2017-10-23T03:51:56.669Z,6.24
2017-10-23T03:54:24.361Z,6.22
2017-10-23T03:56:52.086Z,6.18
2017-10-23T03:59:19.849Z,6.18
2017-10-23T04:43:27.403Z,6.05
2017-10-23T04:45:55.119Z,6.12
2017-10-23T04:48:22.949Z,6.07
2017-10-23T04:50:50.729Z,5.99
2017-10-23T04:53:18.533Z,6.03
2017-10-23T04:55:46.312Z,6.00
2017-10-23T04:58:14.079Z,6.04
2017-10-23T05:00:42.136Z,6.03
2017-10-23T05:03:10.062Z,5.99
2017-10-23T05:05:37.770Z,5.99
2017-10-23T05:08:06.398Z,6.04
2017-10-23T05:10:34.135Z,6.02
2017-10-23T05:13:02.220Z,6.00
2017-10-23T05:15:30.074Z,6.02
2017-10-23T05:17:57.842Z,6.03
2017-10-23T05:20:25.656Z,6.06
2017-10-23T05:22:53.443Z,6.04
2017-10-23T05:25:21.168Z,5.99
2017-10-23T05:27:48.908Z,5.97
2017-10-23T05:30:16.788Z,6.03
2017-10-23T05:32:44.553Z,5.88
2017-10-23T05:35:12.237Z,5.96
2017-10-23T05:37:40.004Z,5.95
2017-10-23T05:40:07.726Z,5.98
2017-10-23T05:42:35.481Z,6.01
2017-10-23T05:45:03.246Z,6.10
2017-10-23T05:47:32.349Z,6.05
2017-10-23T05:50:00.160Z,6.04
2017-10-23T05:52:27.928Z,6.10
2017-10-23T05:54:55.669Z,6.07
2017-10-23T05:57:23.470Z,5.99
2017-10-23T05:59:51.986Z,6.04
2017-10-23T06:02:19.758Z,5.98
2017-10-23T06:04:47.507Z,6.01
2017-10-23T06:07:15.373Z,6.18
2017-10-23T06:09:43.244Z,6.20
2017-10-23T06:12:10.988Z,6.08
2017-10-23T06:14:38.857Z,6.07
2017-10-23T06:17:06.630Z,6.10
2017-10-23T06:19:34.460Z,6.05
2017-10-23T06:22:02.260Z,6.10
2017-10-23T06:24:30.089Z,6.01
2017-10-23T06:26:57.943Z,6.04
2017-10-23T06:29:25.775Z,6.19
2017-10-23T06:31:53.596Z,6.12
2017-10-23T06:34:21.340Z,6.03
2017-10-23T06:36:49.096Z,6.03
2017-10-23T06:39:16.921Z,6.16
2017-10-23T06:41:44.644Z,6.13
2017-10-23T06:44:12.358Z,6.31
2017-10-23T06:46:40.160Z,6.32
2017-10-23T06:49:07.964Z,6.32
2017-10-23T06:51:35.675Z,6.40
2017-10-23T06:54:03.462Z,6.44
2017-10-23T06:56:31.188Z,6.43
2017-10-23T06:58:58.962Z,6.34
2017-10-23T07:01:26.803Z,6.26
2017-10-23T07:03:54.667Z,6.42
2017-10-23T07:06:22.408Z,6.47
2017-10-23T07:08:50.232Z,6.52
2017-10-23T07:11:18.040Z,6.63
2017-10-23T07:13:45.796Z,6.60
2017-10-23T07:16:13.582Z,6.56
2017-10-23T07:18:41.299Z,6.71
2017-10-23T07:21:09.118Z,6.62
2017-10-23T07:23:37.002Z,6.62
2017-10-23T07:26:04.802Z,6.67
2017-10-23T07:28:32.543Z,6.60
2017-10-23T07:31:00.273Z,6.63
2017-10-23T07:33:28.064Z,6.58
2017-10-23T07:35:55.812Z,6.76
2017-10-23T07:38:23.584Z,6.58
2017-10-23T07:40:51.306Z,6.63
2017-10-23T07:43:19.059Z,6.63
2017-10-23T07:45:46.812Z,6.72
2017-10-23T07:48:14.507Z,6.73
2017-10-23T07:50:42.292Z,6.60
2017-10-23T07:53:10.071Z,6.71
2017-10-23T07:55:37.830Z,6.82
2017-10-23T07:58:05.575Z,6.87
2017-10-23T08:00:33.287Z,6.85
2017-10-23T08:03:01.055Z,6.76
2017-10-23T08:05:28.758Z,6.76
2017-10-23T08:07:56.506Z,6.80
2017-10-23T08:10:24.220Z,6.74
2017-10-23T08:12:51.985Z,6.74
2017-10-23T08:15:19.724Z,6.86
2017-10-23T08:17:47.404Z,6.76
2017-10-23T08:20:15.107Z,6.78
2017-10-23T08:22:42.876Z,6.83
2017-10-23T08:25:10.785Z,6.84
2017-10-23T08:27:38.506Z,6.98
2017-10-23T08:30:06.204Z,6.99
2017-10-23T08:32:34.095Z,7.07
2017-10-23T08:35:01.855Z,6.75
2017-10-23T08:37:30.141Z,6.75
2017-10-23T08:39:57.917Z,6.80
2017-10-23T08:42:25.611Z,6.88
2017-10-23T08:44:53.416Z,6.86
2017-10-23T08:47:21.757Z,6.95
2017-10-23T08:49:49.427Z,6.92
2017-10-23T08:52:17.217Z,6.99
2017-10-23T08:54:44.986Z,6.98
2017-10-23T08:57:12.711Z,6.99
2017-10-23T08:59:40.942Z,6.85
2017-10-23T09:02:08.722Z,7.10
2017-10-23T09:04:36.537Z,7.02
2017-10-23T09:07:04.274Z,7.05
2017-10-23T09:09:32.251Z,7.15
2017-10-23T09:11:59.962Z,7.12
2017-10-23T09:14:27.688Z,6.95
2017-10-23T09:16:55.445Z,6.99
2017-10-23T09:19:23.214Z,7.01
2017-10-23T09:21:50.991Z,7.03
2017-10-23T09:24:18.764Z,7.00
2017-10-23T09:26:46.494Z,7.08
2017-10-23T09:29:14.245Z,7.00
2017-10-23T09:31:43.299Z,7.12
2017-10-23T09:34:11.043Z,7.11
2017-10-23T09:36:38.841Z,6.94
2017-10-23T09:39:06.611Z,7.05
2017-10-23T09:41:34.295Z,7.02
2017-10-23T09:44:02.025Z,7.12
2017-10-23T09:46:29.773Z,7.15
2017-10-23T09:48:57.577Z,6.98
2017-10-23T09:51:25.247Z,7.18
2017-10-23T09:53:52.935Z,7.21
2017-10-23T09:56:20.716Z,7.11
2017-10-23T09:58:48.408Z,7.23
2017-10-23T10:01:16.151Z,7.43
2017-10-23T10:03:43.914Z,7.48
2017-10-23T10:06:11.698Z,7.30
2017-10-23T10:08:39.454Z,7.06
2017-10-23T10:11:07.970Z,7.38
2017-10-23T10:13:35.711Z,7.18
2017-10-23T10:16:03.517Z,7.09
2017-10-23T10:18:31.225Z,7.22
2017-10-23T10:20:58.956Z,7.31
2017-10-23T10:23:26.717Z,7.19
2017-10-23T10:25:54.448Z,7.23
2017-10-23T10:28:22.267Z,7.17
2017-10-23T10:30:50.945Z,7.31
2017-10-23T10:33:18.685Z,7.39
2017-10-23T10:35:46.398Z,7.23
2017-10-23T10:38:14.464Z,7.36
2017-10-23T10:40:42.324Z,7.40
2017-10-23T10:43:10.164Z,7.60
2017-10-23T10:45:37.915Z,7.62
2017-10-23T10:48:05.663Z,7.71
2017-10-23T10:50:34.470Z,7.85
2017-10-23T10:53:02.213Z,7.89
2017-10-23T10:55:29.998Z,7.92
2017-10-23T10:57:58.278Z,7.77
2017-10-23T11:00:26.037Z,7.89
2017-10-23T11:02:54.545Z,7.91
2017-10-23T11:05:22.397Z,7.77
2017-10-23T11:07:50.125Z,7.68
2017-10-23T11:10:17.991Z,7.66
2017-10-23T11:12:46.104Z,7.73
2017-10-23T11:15:13.883Z,7.72
2017-10-23T11:17:41.629Z,7.67
2017-10-23T11:20:09.425Z,7.52
2017-10-23T11:22:37.236Z,7.48
2017-10-23T11:25:05.398Z,7.79
2017-10-23T11:27:33.148Z,7.54
2017-10-23T11:30:00.909Z,7.62
2017-10-23T11:32:28.736Z,7.73
2017-10-23T11:34:57.617Z,7.91
2017-10-23T11:37:25.530Z,8.06
2017-10-23T11:39:53.303Z,7.83
2017-10-23T11:42:21.082Z,7.79
2017-10-23T11:44:48.787Z,7.93
2017-10-23T11:47:16.627Z,7.93
2017-10-23T11:49:44.395Z,8.13
2017-10-23T11:52:12.169Z,8.13
2017-10-23T11:54:39.974Z,8.18
2017-10-23T11:57:07.733Z,8.12
2017-10-23T11:59:35.533Z,7.97
2017-10-23T12:02:03.521Z,8.07
2017-10-23T12:04:31.243Z,8.14
2017-10-23T12:06:58.989Z,8.19
2017-10-23T12:09:26.753Z,7.93
2017-10-23T12:11:54.522Z,7.75
2017-10-23T12:14:22.288Z,7.84
2017-10-23T12:16:50.295Z,7.82
2017-10-23T12:19:18.157Z,7.63
2017-10-23T12:21:46.862Z,7.50
2017-10-23T12:24:14.633Z,7.62
2017-10-23T12:26:42.389Z,7.82
2017-10-23T12:29:10.143Z,7.96
2017-10-23T12:31:37.924Z,8.03
2017-10-23T12:34:05.651Z,8.06
2017-10-23T12:36:33.377Z,8.15
2017-10-23T12:39:01.143Z,7.93
2017-10-23T12:41:28.982Z,7.68
2017-10-23T12:43:57.767Z,7.42
2017-10-23T12:46:25.533Z,7.48
2017-10-23T12:48:53.253Z,7.51
2017-10-23T12:51:21.022Z,7.61
2017-10-23T12:53:48.982Z,7.52
2017-10-23T12:56:17.337Z,7.62
2017-10-23T12:58:45.689Z,7.58
2017-10-23T13:01:13.382Z,7.62
2017-10-23T13:03:42.024Z,7.45
2017-10-23T13:06:09.780Z,7.50
2017-10-23T13:08:39.206Z,7.52
2017-10-23T13:11:07.016Z,7.51
2017-10-23T13:13:35.760Z,7.39
2017-10-23T13:16:03.671Z,7.23
2017-10-23T13:18:31.404Z,7.22
2017-10-23T13:20:59.555Z,7.27
2017-10-23T13:23:27.418Z,7.21
2017-10-23T13:25:56.201Z,7.23
2017-10-23T13:28:23.897Z,7.11
2017-10-23T13:30:51.699Z,7.19
2017-10-23T13:33:19.652Z,7.18
2017-10-23T13:35:47.368Z,7.18
2017-10-23T13:38:15.214Z,7.14
2017-10-23T13:40:42.996Z,7.13
2017-10-23T13:43:10.773Z,7.18
2017-10-23T13:45:38.785Z,7.15
2017-10-23T13:48:06.589Z,7.24
2017-10-23T13:50:34.310Z,7.00
2017-10-23T13:53:02.049Z,6.93
2017-10-23T13:55:29.827Z,7.10
2017-10-23T13:57:58.504Z,7.02
2017-10-23T14:00:26.318Z,7.05
2017-10-23T14:02:54.086Z,6.94
2017-10-23T14:05:21.925Z,7.04
2017-10-23T14:07:50.593Z,6.89
2017-10-23T14:10:19.182Z,6.98
2017-10-23T14:12:47.006Z,6.97
2017-10-23T14:15:15.499Z,7.01
2017-10-23T14:17:43.399Z,6.94
2017-10-23T14:20:11.161Z,6.94
2017-10-23T14:22:48.687Z,6.99
2017-10-23T14:25:16.448Z,6.86
2017-10-23T14:27:44.397Z,7.05
2017-10-23T14:30:12.142Z,7.03
2017-10-23T14:32:40.040Z,6.93
2017-10-23T14:35:07.888Z,7.01
2017-10-23T14:37:35.857Z,7.12
2017-10-23T14:40:03.818Z,7.05
2017-10-23T14:42:31.686Z,7.23
2017-10-23T14:44:59.641Z,7.11
2017-10-23T14:47:27.687Z,7.06
2017-10-23T14:49:56.588Z,7.00
2017-10-23T14:52:24.731Z,7.21
2017-10-23T14:54:52.650Z,7.17
2017-10-23T14:57:20.716Z,7.11
2017-10-23T14:59:48.721Z,7.16
2017-10-23T15:02:16.692Z,6.96
2017-10-23T15:04:45.690Z,7.02
2017-10-23T15:07:13.821Z,6.99
2017-10-23T15:09:42.602Z,7.00
2017-10-23T15:12:11.081Z,7.11
2017-10-23T15:14:38.960Z,7.05
2017-10-23T15:17:06.804Z,7.02
2017-10-23T15:19:34.670Z,6.97
2017-10-23T15:22:02.494Z,7.04
2017-10-23T15:24:30.359Z,7.00
2017-10-23T15:26:58.114Z,7.02
2017-10-23T15:29:27.021Z,6.97
2017-10-23T15:31:54.751Z,7.06
2017-10-23T15:34:22.614Z,7.01
2017-10-23T15:36:50.372Z,6.96
2017-10-23T15:39:18.221Z,6.99
2017-10-23T15:41:46.776Z,6.98
2017-10-23T15:44:15.959Z,7.03
2017-10-23T15:46:43.824Z,6.94
2017-10-23T15:49:12.638Z,6.94
2017-10-23T15:51:41.512Z,6.93
2017-10-23T15:54:10.180Z,7.02
2017-10-23T15:56:38.917Z,6.97
2017-10-23T15:59:06.712Z,6.85
2017-10-23T16:01:34.451Z,6.88
2017-10-23T16:04:02.159Z,6.82
2017-10-23T16:06:29.889Z,6.97
2017-10-23T16:08:57.586Z,6.85
2017-10-23T16:11:25.711Z,6.89
2017-10-23T16:13:53.811Z,6.85
2017-10-23T16:16:21.765Z,6.80
2017-10-23T16:18:49.505Z,6.73
2017-10-23T16:21:17.780Z,6.76
2017-10-23T16:23:45.597Z,6.78
2017-10-23T16:26:13.394Z,6.94
2017-10-23T16:28:41.205Z,6.97
2017-10-23T16:31:08.978Z,6.84
2017-10-23T16:33:36.808Z,6.82
2017-10-23T16:36:06.803Z,6.82
2017-10-23T16:38:34.597Z,6.93
2017-10-23T16:41:03.523Z,6.81
2017-10-23T16:43:32.193Z,6.81
2017-10-23T16:46:00.027Z,6.76
2017-10-23T16:48:27.824Z,6.74
2017-10-23T16:50:55.591Z,6.91
2017-10-23T16:53:23.456Z,6.75
2017-10-23T16:55:51.213Z,6.72
2017-10-23T16:58:20.361Z,6.70
2017-10-23T17:00:48.254Z,6.89
2017-10-23T17:03:16.481Z,6.80
2017-10-23T17:05:44.828Z,6.82
2017-10-23T17:08:12.720Z,6.78
2017-10-23T17:10:40.604Z,6.72
2017-10-23T17:13:08.762Z,6.65
2017-10-23T17:15:37.582Z,6.56
2017-10-23T17:18:05.729Z,6.68
2017-10-23T17:20:33.813Z,6.83
2017-10-23T17:23:01.591Z,6.76
2017-10-23T17:25:30.051Z,6.73
2017-10-23T17:27:57.885Z,6.70
2017-10-23T17:30:26.594Z,6.64
2017-10-23T17:32:55.441Z,6.63
2017-10-23T17:35:23.924Z,6.47
2017-10-23T17:37:52.893Z,6.49
2017-10-23T17:40:23.004Z,6.55
2017-10-23T17:42:50.942Z,6.53
2017-10-23T17:45:18.920Z,6.59
2017-10-23T17:47:47.322Z,6.47
2017-10-23T17:50:16.035Z,6.51
2017-10-23T17:52:44.470Z,6.65
2017-10-23T17:55:12.195Z,6.60
2017-10-23T17:57:40.706Z,6.58
2017-10-23T18:00:09.090Z,6.44
2017-10-23T18:02:37.090Z,6.45
2017-10-23T18:05:05.100Z,6.43
2017-10-23T18:07:32.900Z,6.47
2017-10-23T18:10:00.734Z,6.42
2017-10-23T18:12:28.522Z,6.55
2017-10-23T18:14:56.909Z,6.49
2017-10-23T18:17:24.985Z,6.57
2017-10-23T18:19:53.187Z,6.43
2017-10-23T18:22:21.189Z,6.53
2017-10-23T18:24:49.936Z,6.50
2017-10-23T18:27:18.996Z,6.48
2017-10-23T18:29:46.951Z,6.49
2017-10-23T18:32:14.763Z,6.45
2017-10-23T18:34:47.229Z,6.42
2017-10-23T18:37:16.289Z,6.51
2017-10-23T18:39:44.198Z,6.48
2017-10-23T18:42:13.075Z,6.48
2017-10-23T18:44:41.224Z,6.49
2017-10-23T18:47:09.473Z,6.52
2017-10-23T18:49:38.227Z,6.46
2017-10-23T18:52:05.967Z,6.42
2017-10-23T18:54:33.751Z,6.47
2017-10-23T18:57:02.583Z,6.49
2017-10-23T18:59:30.848Z,6.49
2017-10-23T19:01:58.669Z,6.48
2017-10-23T19:04:26.406Z,6.46
2017-10-23T19:06:54.140Z,6.50
2017-10-23T19:09:21.940Z,6.50
2017-10-23T19:11:49.789Z,6.43
2017-10-23T19:14:18.385Z,6.57
2017-10-23T19:16:46.392Z,6.48
2017-10-23T19:19:15.176Z,6.50
2017-10-23T19:21:43.048Z,6.44
2017-10-23T19:24:11.562Z,6.44
2017-10-23T19:26:39.364Z,6.43
2017-10-23T19:29:07.262Z,6.37
2017-10-23T19:31:35.091Z,6.37
2017-10-23T19:34:03.887Z,6.33
2017-10-23T19:36:31.711Z,6.33
2017-10-23T19:39:00.069Z,6.39
2017-10-23T19:41:28.863Z,6.34
2017-10-23T19:43:56.789Z,6.34
2017-10-23T19:46:25.876Z,6.32
2017-10-23T19:48:53.677Z,6.38
2017-10-23T19:51:22.065Z,6.34
2017-10-23T19:53:49.907Z,6.24
2017-10-23T19:56:18.665Z,6.35
2017-10-23T19:58:46.452Z,6.33
2017-10-23T20:01:14.496Z,6.42
2017-10-23T20:03:43.444Z,6.63
2017-10-23T20:06:14.193Z,6.40
2017-10-23T20:08:42.782Z,6.44
2017-10-23T20:11:10.638Z,6.42
2017-10-23T20:13:38.690Z,6.42
2017-10-23T20:18:57.729Z,6.44
2017-10-23T20:21:26.176Z,6.59
2017-10-23T20:23:54.050Z,6.56
2017-10-23T20:26:23.345Z,6.56
2017-10-23T20:28:51.677Z,6.50
2017-10-23T20:31:19.752Z,6.50
2017-10-23T20:33:47.841Z,6.49
2017-10-23T20:36:16.891Z,6.48
2017-10-23T20:38:46.852Z,6.53
2017-10-23T20:41:14.655Z,6.46
2017-10-23T20:43:42.433Z,6.44
2017-10-23T20:46:10.452Z,6.39
2017-10-23T20:48:38.170Z,6.53
2017-10-23T20:51:07.201Z,6.54
2017-10-23T20:53:35.058Z,6.53
2017-10-23T20:56:02.822Z,6.55
2017-10-23T20:58:30.630Z,6.57
2017-10-23T21:01:00.492Z,6.52
2017-10-23T21:03:28.619Z,6.47
2017-10-23T21:05:56.727Z,6.48
2017-10-23T21:08:25.037Z,6.45
2017-10-23T21:10:52.828Z,6.43
2017-10-23T21:13:21.820Z,6.46
2017-10-23T21:15:49.610Z,6.47
2017-10-23T21:18:17.330Z,6.64
2017-10-23T21:20:46.367Z,6.46
2017-10-23T21:23:14.133Z,6.50
2017-10-23T21:25:41.901Z,6.54
2017-10-23T21:28:09.608Z,6.51
2017-10-23T21:30:39.562Z,6.53
2017-10-23T21:33:08.670Z,6.52
2017-10-23T21:35:36.397Z,6.50
2017-10-23T21:38:04.229Z,6.52
2017-10-23T21:40:32.070Z,6.47
2017-10-23T21:42:59.824Z,6.47
2017-10-23T21:45:27.575Z,6.51
2017-10-23T21:48:04.870Z,6.50
2017-10-23T21:50:32.611Z,6.53
2017-10-23T21:53:00.365Z,6.55
2017-10-23T21:55:28.111Z,6.53
2017-10-23T21:57:55.807Z,6.62
2017-10-23T22:00:23.577Z,6.89
2017-10-23T22:02:51.338Z,7.00
2017-10-23T22:05:19.985Z,6.92
2017-10-23T22:07:47.706Z,6.90
2017-10-23T22:10:17.614Z,6.86
2017-10-23T22:12:45.666Z,6.90
2017-10-23T22:15:13.726Z,6.77
2017-10-23T22:17:41.852Z,6.70
2017-10-23T22:20:09.583Z,6.63
2017-10-23T22:22:37.277Z,6.66
2017-10-23T22:25:05.063Z,6.64
2017-10-23T22:27:32.772Z,6.62
2017-10-23T22:30:00.519Z,6.59
2017-10-23T22:32:28.208Z,6.56
2017-10-23T22:34:55.881Z,6.59
2017-10-23T22:37:23.593Z,6.64
2017-10-23T22:39:51.331Z,6.61
2017-10-23T22:42:19.073Z,6.59
2017-10-23T22:44:46.760Z,6.60
2017-10-23T22:47:14.581Z,6.54
2017-10-23T22:49:42.305Z,6.56
2017-10-23T22:52:10.004Z,6.55
2017-10-23T22:54:37.776Z,6.61
2017-10-23T22:57:05.678Z,6.57
2017-10-23T22:59:33.519Z,6.59
2017-10-23T23:02:01.175Z,6.58
2017-10-23T23:04:28.917Z,6.62
2017-10-23T23:06:56.705Z,6.64
2017-10-23T23:09:24.425Z,6.60
2017-10-23T23:11:52.123Z,6.65
2017-10-23T23:14:19.792Z,6.64
2017-10-23T23:16:47.501Z,6.62
2017-10-23T23:19:15.247Z,6.62
2017-10-23T23:21:42.954Z,6.61
2017-10-23T23:24:10.743Z,6.59
2017-10-23T23:26:38.524Z,6.59
2017-10-23T23:29:06.277Z,6.60
2017-10-23T23:31:34.017Z,6.70
2017-10-23T23:34:01.757Z,6.63
2017-10-23T23:36:29.467Z,6.59
2017-10-23T23:38:57.182Z,6.51
2017-10-23T23:41:24.907Z,6.57
2017-10-23T23:43:52.622Z,6.62
2017-10-23T23:46:20.336Z,6.61
2017-10-23T23:48:48.008Z,6.59
2017-10-23T23:51:15.851Z,6.62
2017-10-23T23:53:43.507Z,6.55
2017-10-23T23:56:11.183Z,6.57
2017-10-23T23:58:38.946Z,6.58
